This is the latest recevied weather packets stored in our database for station/object OK1PHM-12. If no packets are shown the sender has not sent any weather packets the latest 1 day(s).
| Time | Temp. | Humidity | Pressure | Rain* | Wind** | Luminosity | Snow |
|---|---|---|---|---|---|---|---|
| 1778044355 | 18.33° C | 71% | 1009 hPa | - | - | - | - |
| 1778043454 | 18.33° C | 73% | 1009 hPa | - | - | - | - |
| 1778042553 | 16.11° C | 79% | 1009 hPa | - | - | - | - |
| 1778039850 | 14.44° C | 93% | 1008.5 hPa | - | - | - | - |
| 1778038950 | 12.78° C | 94% | 1008.4 hPa | - | - | - | - |
| 1778038049 | 13.33° C | 92% | 1008.3 hPa | - | - | - | - |
| 1778037148 | 13.89° C | 89% | 1008.4 hPa | - | - | - | - |
| 1778036247 | 14.44° C | 89% | 1008.5 hPa | - | - | - | - |
| 1778034446 | 14.44° C | 88% | 1008.6 hPa | - | - | - | - |
| 1778033545 | 14.44° C | 88% | 1008.3 hPa | - | - | - | - |
| 1778031743 | 14.44° C | 87% | 1008 hPa | - | - | - | - |
| 1778030842 | 14.44° C | 87% | 1008.2 hPa | - | - | - | - |
| 1778029941 | 14.44° C | 88% | 1008.4 hPa | - | - | - | - |
| 1778029040 | 15° C | 87% | 1008.3 hPa | - | - | - | - |
| 1778027239 | 15° C | 86% | 1008.3 hPa | - | - | - | - |
| 1778026338 | 15° C | 85% | 1008 hPa | - | - | - | - |
| 1778021834 | 18.33° C | 58% | 1007.7 hPa | - | - | - | - |
| 1778017330 | 17.78° C | 62% | 1006.3 hPa | - | - | - | - |
| 1778016429 | 18.33° C | 62% | 1006.2 hPa | - | - | - | - |
| 1778011925 | 18.33° C | 66% | 1006.8 hPa | - | - | - | - |
| 1778004718 | 19.44° C | 62% | 1006.5 hPa | - | - | - | - |
* Rain since midnight (hover to see other rain measurements)
** Current wind speed in m/s (hover to see current wind gust speed)